Time;durP1;ratioP1;P1;durP2;ratioP2;P2;SDS_P1;SDS_P2;PMS_P1;PMS_P2;Temp;Humidity;BMP_temperature;BMP_pressure;BME280_temperature;BME280_humidity;BME280_pressure;Samples;Min_cycle;Max_cycle;Signal;HPM_P1;HPM_P2
2023/07/21 00:02:17;;;;;;;5.63;2.53;;;;;;;18.44;61.45;95828.03;5110757;27;20043;-74
2023/07/21 00:04:43;;;;;;;3.85;2.60;;;;;;;18.42;61.81;95832.34;5097467;27;20072;-73
2023/07/21 00:07:10;;;;;;;4.47;2.80;;;;;;;18.34;61.82;95825.97;5109223;27;20051;-74
2023/07/21 00:09:37;;;;;;;4.85;2.50;;;;;;;18.35;63.11;95811.03;5110811;27;20047;-73
2023/07/21 00:12:04;;;;;;;5.10;2.42;;;;;;;18.33;61.91;95818.88;5094499;27;20047;-74
2023/07/21 00:14:32;;;;;;;5.82;2.47;;;;;;;18.33;62.06;95810.63;5090513;28;20487;-73
2023/07/21 00:16:58;;;;;;;5.90;2.58;;;;;;;18.28;61.96;95808.22;5106890;27;20036;-74
2023/07/21 00:19:25;;;;;;;4.75;2.75;;;;;;;18.27;61.95;95803.88;5110285;27;20189;-74
2023/07/21 00:21:51;;;;;;;5.72;2.50;;;;;;;18.26;61.94;95807.78;5110889;27;20043;-73
2023/07/21 00:24:18;;;;;;;7.15;2.65;;;;;;;18.24;62.84;95804.63;5110156;27;20040;-75
2023/07/21 00:26:46;;;;;;;6.55;3.15;;;;;;;18.18;63.85;95795.13;5096214;27;20157;-75
2023/07/21 00:29:12;;;;;;;4.85;2.80;;;;;;;18.13;64.56;95801.00;5089426;28;20564;-76
2023/07/21 00:31:46;;;;;;;6.50;2.90;;;;;;;18.10;64.82;95802.53;5090109;28;20040;-75
2023/07/21 00:34:13;;;;;;;8.80;3.10;;;;;;;18.09;65.02;95797.41;5106091;28;20398;-75
2023/07/21 00:36:39;;;;;;;6.40;2.88;;;;;;;18.05;64.72;95810.34;5089426;28;20044;-75
2023/07/21 00:39:06;;;;;;;4.22;3.05;;;;;;;18.03;64.93;95804.44;5089610;28;20105;-75
2023/07/21 00:41:33;;;;;;;4.72;2.72;;;;;;;17.99;65.17;95801.66;5108608;28;20048;-75
2023/07/21 00:44:01;;;;;;;5.18;3.05;;;;;;;17.96;65.48;95800.47;5096317;28;20036;-75
2023/07/21 00:46:27;;;;;;;8.68;3.00;;;;;;;17.95;64.85;95798.84;5107591;27;20046;-75
2023/07/21 00:48:55;;;;;;;6.55;3.00;;;;;;;17.88;64.78;95798.78;5110286;27;20036;-75
2023/07/21 00:51:22;;;;;;;5.35;2.60;;;;;;;17.88;65.15;95798.78;5098330;28;20047;-75
2023/07/21 00:53:49;;;;;;;4.80;2.55;;;;;;;17.89;65.13;95800.38;5096577;28;20051;-75
2023/07/21 00:56:15;;;;;;;5.78;2.88;;;;;;;17.94;65.31;95804.75;5103361;28;20058;-75
2023/07/21 00:58:42;;;;;;;6.28;3.15;;;;;;;17.90;64.98;95810.22;5095915;28;20040;-75
2023/07/21 01:01:09;;;;;;;5.47;2.90;;;;;;;17.86;65.33;95806.66;5094350;28;20044;-75
2023/07/21 01:03:36;;;;;;;8.38;2.90;;;;;;;17.79;65.93;95803.81;5107530;27;20123;-75
2023/07/21 01:06:04;;;;;;;8.93;2.55;;;;;;;17.79;66.40;95806.56;5110948;27;20487;-75
2023/07/21 01:08:31;;;;;;;7.10;2.92;;;;;;;17.81;67.06;95804.25;5095293;28;20047;-75
2023/07/21 01:10:58;;;;;;;5.03;3.00;;;;;;;17.81;66.69;95804.25;5094933;28;20495;-75
2023/07/21 01:13:26;;;;;;;6.35;3.20;;;;;;;17.79;66.51;95801.06;5097105;28;20055;-75
2023/07/21 01:15:54;;;;;;;4.47;2.63;;;;;;;17.71;67.14;95793.88;5114267;27;20040;-75
2023/07/21 01:18:21;;;;;;;6.20;2.67;;;;;;;17.60;67.21;95791.00;5095782;28;20649;-74
2023/07/21 01:20:49;;;;;;;6.53;2.92;;;;;;;17.56;67.72;95786.63;5094758;28;20055;-74
2023/07/21 01:23:27;;;;;;;5.95;2.70;;;;;;;17.54;67.81;95772.44;5093829;28;20063;-74
2023/07/21 01:25:57;;;;;;;4.80;2.92;;;;;;;17.51;67.83;95781.47;5100044;28;20406;-75
2023/07/21 01:28:26;;;;;;;4.05;2.97;;;;;;;17.48;67.83;95778.28;5113694;27;20043;-75
2023/07/21 01:30:56;;;;;;;6.20;2.85;;;;;;;17.51;68.44;95781.47;5107675;27;20080;-75
2023/07/21 01:33:23;;;;;;;4.65;2.42;;;;;;;17.48;68.81;95771.97;5093194;28;20073;-74
2023/07/21 01:35:50;;;;;;;6.72;2.80;;;;;;;17.47;69.02;95773.94;5098297;28;20039;-74
2023/07/21 01:38:18;;;;;;;4.90;2.42;;;;;;;17.44;69.10;95763.72;5112006;27;20056;-74
2023/07/21 01:40:45;;;;;;;7.28;2.60;;;;;;;17.46;69.81;95764.09;5094117;28;20051;-75
2023/07/21 01:43:14;;;;;;;5.63;2.95;;;;;;;17.47;70.36;95746.41;5092701;28;20051;-75
2023/07/21 01:45:42;;;;;;;5.55;2.65;;;;;;;17.51;69.89;95751.19;5109369;27;20499;-74
2023/07/21 01:48:09;;;;;;;6.47;3.00;;;;;;;17.52;69.37;95744.50;5104591;27;20048;-74
2023/07/21 01:50:39;;;;;;;7.15;2.65;;;;;;;17.53;69.34;95743.31;5113533;27;20047;-75
2023/07/21 01:53:09;;;;;;;6.80;3.15;;;;;;;17.57;69.63;95746.91;5104754;27;20093;-75
2023/07/21 01:55:40;;;;;;;4.95;2.53;;;;;;;17.59;69.22;95752.81;5095054;28;20532;-74
2023/07/21 01:58:09;;;;;;;8.40;2.92;;;;;;;17.59;69.23;95748.13;5103410;27;20048;-75
2023/07/21 02:00:42;;;;;;;5.38;2.58;;;;;;;17.58;69.35;95752.03;5097270;28;20047;-75
2023/07/21 02:03:09;;;;;;;6.40;2.97;;;;;;;17.55;69.20;95761.06;5104274;27;20047;-75
2023/07/21 02:05:35;;;;;;;8.45;2.78;;;;;;;17.55;69.27;95758.31;5104015;28;20051;-75
2023/07/21 02:08:02;;;;;;;4.47;2.88;;;;;;;17.58;70.04;95751.25;5115486;27;20044;-75
2023/07/21 02:10:28;;;;;;;4.97;2.70;;;;;;;17.60;70.29;95760.72;5113139;27;20085;-75
2023/07/21 02:12:55;;;;;;;5.55;2.90;;;;;;;17.65;69.94;95756.84;5102434;28;20197;-75
2023/07/21 02:15:21;;;;;;;4.40;2.72;;;;;;;17.62;69.17;95757.59;5097346;28;20052;-75
2023/07/21 02:17:49;;;;;;;7.85;2.78;;;;;;;17.61;68.19;95750.50;5116468;27;20050;-74
2023/07/21 02:20:16;;;;;;;7.38;2.97;;;;;;;17.60;69.04;95754.44;5116116;27;20051;-75
2023/07/21 02:22:43;;;;;;;5.97;2.90;;;;;;;17.58;68.76;95757.53;5113140;27;20077;-75
2023/07/21 02:25:10;;;;;;;4.63;2.58;;;;;;;17.58;68.72;95756.75;5107540;27;20590;-75
2023/07/21 02:27:37;;;;;;;4.75;2.38;;;;;;;17.58;69.08;95756.75;5114166;27;20036;-74
2023/07/21 02:30:06;;;;;;;5.00;2.83;;;;;;;17.61;69.08;95745.00;5105423;27;20130;-75
2023/07/21 02:32:32;;;;;;;6.20;3.00;;;;;;;17.59;69.63;95741.81;5118651;27;20040;-75
2023/07/21 02:35:00;;;;;;;5.50;3.00;;;;;;;17.60;69.90;95743.41;5098544;28;20047;-74
2023/07/21 02:37:27;;;;;;;4.57;2.70;;;;;;;17.62;69.83;95738.31;5111819;27;20123;-74
2023/07/21 02:39:54;;;;;;;6.13;3.38;;;;;;;17.61;69.70;95739.50;5112075;27;20039;-75
2023/07/21 02:42:20;;;;;;;4.63;2.85;;;;;;;17.53;70.07;95730.34;5093272;27;20450;-75
2023/07/21 02:44:47;;;;;;;6.30;2.80;;;;;;;17.47;70.43;95729.13;5103974;27;20051;-74
2023/07/21 02:47:16;;;;;;;7.10;3.03;;;;;;;17.43;70.93;95718.06;5094429;27;20044;-75
2023/07/21 02:49:43;;;;;;;3.83;2.70;;;;;;;17.44;71.09;95719.66;5107516;27;20040;-74
2023/07/21 02:52:11;;;;;;;7.43;3.40;;;;;;;17.45;71.44;95721.25;5091636;28;20044;-75
2023/07/21 02:54:37;;;;;;;4.85;2.80;;;;;;;17.44;71.36;95719.66;5092123;28;20058;-74
2023/07/21 02:57:04;;;;;;;5.95;2.92;;;;;;;17.41;71.33;95719.63;5107819;27;20092;-75
2023/07/21 02:59:31;;;;;;;7.50;3.08;;;;;;;17.40;71.89;95723.53;5108808;27;20051;-74
2023/07/21 03:01:58;;;;;;;5.93;3.33;;;;;;;17.39;71.44;95725.50;5107444;27;20040;-75
2023/07/21 03:04:26;;;;;;;5.72;3.60;;;;;;;17.39;71.41;95725.50;5111631;27;20063;-75
2023/07/21 03:06:53;;;;;;;6.85;3.28;;;;;;;17.40;71.74;95726.31;5112073;27;20043;-74
2023/07/21 03:09:21;;;;;;;8.23;2.88;;;;;;;17.40;71.43;95718.84;5112811;27;20054;-74
2023/07/21 03:11:47;;;;;;;6.55;2.88;;;;;;;17.41;71.78;95720.41;5111412;27;20047;-74
2023/07/21 03:14:14;;;;;;;5.20;3.08;;;;;;;17.41;71.11;95723.16;5097788;28;20047;-75
2023/07/21 03:16:41;;;;;;;5.03;3.05;;;;;;;17.28;70.88;95726.53;5116944;27;20043;-75
2023/07/21 03:19:07;;;;;;;6.78;3.17;;;;;;;17.31;71.32;95726.59;5118788;27;20055;-75
2023/07/21 03:21:34;;;;;;;9.07;3.80;;;;;;;17.27;71.74;95724.97;5094939;28;20044;-75
2023/07/21 03:24:00;;;;;;;8.13;3.35;;;;;;;17.32;71.81;95719.91;5095991;28;20056;-74
2023/07/21 03:26:28;;;;;;;6.32;3.60;;;;;;;17.25;72.29;95722.59;5093797;28;20055;-75
2023/07/21 03:28:55;;;;;;;5.70;3.60;;;;;;;17.34;72.50;95725.06;5104951;27;20038;-74
2023/07/21 03:31:22;;;;;;;4.30;2.88;;;;;;;17.34;72.29;95725.84;5111237;27;20090;-75
2023/07/21 03:33:48;;;;;;;5.38;3.45;;;;;;;17.27;72.18;95725.75;5111952;27;20506;-74
2023/07/21 03:36:15;;;;;;;5.32;3.53;;;;;;;17.13;72.58;95722.88;5111657;27;20065;-75
2023/07/21 03:38:41;;;;;;;6.85;2.95;;;;;;;17.03;73.04;95716.06;5112184;27;20517;-74
2023/07/21 03:41:09;;;;;;;7.05;2.95;;;;;;;16.97;73.62;95727.78;5103499;27;20048;-75
2023/07/21 03:43:37;;;;;;;4.88;2.95;;;;;;;16.92;73.70;95726.94;5105968;27;20044;-75
2023/07/21 03:46:05;;;;;;;9.50;3.90;;;;;;;16.86;73.88;95724.88;5093667;28;20047;-75
2023/07/21 03:48:32;;;;;;;6.75;3.65;;;;;;;16.73;74.49;95729.81;5106479;27;20047;-75
2023/07/21 03:51:00;;;;;;;6.38;3.95;;;;;;;16.68;74.64;95727.38;5113351;27;20043;-75
2023/07/21 03:53:27;;;;;;;7.72;3.35;;;;;;;16.70;75.06;95727.78;5110143;27;20047;-74
2023/07/21 03:55:54;;;;;;;7.38;3.15;;;;;;;16.74;75.55;95728.66;5111104;27;20047;-74
2023/07/21 03:58:21;;;;;;;6.28;3.30;;;;;;;16.78;75.15;95737.75;5100494;27;20054;-75
2023/07/21 04:00:49;;;;;;;7.22;3.20;;;;;;;16.82;73.92;95727.59;5094767;27;20123;-75
2023/07/21 04:03:18;;;;;;;7.78;3.35;;;;;;;16.77;73.95;95719.66;5094966;28;20494;-75
2023/07/21 04:05:45;;;;;;;5.72;3.85;;;;;;;16.79;74.29;95722.81;5098538;27;20450;-75
2023/07/21 04:08:11;;;;;;;4.68;3.30;;;;;;;16.83;74.68;95733.88;5107003;27;20047;-75
2023/07/21 04:10:40;;;;;;;5.13;3.28;;;;;;;16.88;75.06;95731.59;5110691;27;20039;-74
2023/07/21 04:13:07;;;;;;;7.93;3.47;;;;;;;16.97;75.18;95733.28;5102023;27;20052;-75
2023/07/21 04:15:33;;;;;;;7.80;3.78;;;;;;;16.99;75.02;95733.69;5090094;28;20515;-74
2023/07/21 04:18:01;;;;;;;5.75;4.07;;;;;;;17.00;75.12;95732.50;5090246;28;20048;-74
2023/07/21 04:20:29;;;;;;;7.20;3.83;;;;;;;17.10;74.99;95731.84;5098305;28;20035;-74
2023/07/21 04:22:56;;;;;;;9.82;4.10;;;;;;;17.09;74.27;95730.28;5094124;28;20072;-75
2023/07/21 04:25:22;;;;;;;7.53;3.80;;;;;;;16.98;74.50;95724.66;5091711;27;20055;-75
2023/07/21 04:27:53;;;;;;;6.03;3.58;;;;;;;17.10;74.39;95718.09;5105250;27;20047;-75
2023/07/21 04:30:19;;;;;;;8.63;4.10;;;;;;;17.17;75.13;95709.91;5089566;28;20044;-75
2023/07/21 04:32:46;;;;;;;6.00;3.42;;;;;;;17.22;74.80;95704.06;5098906;28;20036;-74
2023/07/21 04:35:16;;;;;;;5.80;3.50;;;;;;;17.32;74.45;95710.88;5107243;27;20046;-75
2023/07/21 04:37:43;;;;;;;6.53;3.53;;;;;;;17.39;74.33;95716.47;5110632;27;20096;-74
2023/07/21 04:40:11;;;;;;;7.32;3.80;;;;;;;17.43;73.52;95711.75;5109680;27;20048;-75
2023/07/21 04:42:38;;;;;;;5.90;3.83;;;;;;;17.46;72.61;95711.81;5110482;28;20050;-74
2023/07/21 04:45:06;;;;;;;6.75;3.58;;;;;;;17.50;72.66;95713.81;5102343;27;20044;-75
2023/07/21 04:47:32;;;;;;;8.02;3.88;;;;;;;17.54;72.99;95714.63;5089953;28;20487;-75
2023/07/21 04:49:59;;;;;;;7.00;3.78;;;;;;;17.56;72.82;95721.34;5105243;27;20055;-74
2023/07/21 04:52:26;;;;;;;5.60;3.63;;;;;;;17.56;72.50;95718.59;5096619;28;20056;-74
2023/07/21 04:54:53;;;;;;;9.70;4.65;;;;;;;17.50;72.26;95724.84;5090436;28;20063;-74
2023/07/21 04:57:19;;;;;;;6.05;4.45;;;;;;;17.53;72.13;95726.81;5097832;28;20519;-75
2023/07/21 04:59:46;;;;;;;6.80;3.70;;;;;;;17.62;72.92;95730.84;5098277;28;20373;-74
2023/07/21 05:02:12;;;;;;;8.75;4.50;;;;;;;17.71;72.83;95727.78;5098209;27;20051;-75
2023/07/21 05:04:39;;;;;;;7.15;3.83;;;;;;;17.76;72.21;95732.19;5110258;27;20134;-75
2023/07/21 05:07:05;;;;;;;8.52;4.03;;;;;;;17.80;72.26;95725.56;5105035;27;20137;-75
2023/07/21 05:09:33;;;;;;;9.30;4.65;;;;;;;17.65;71.99;95735.59;5089965;28;20043;-74
2023/07/21 05:12:01;;;;;;;10.05;4.40;;;;;;;17.76;71.77;95726.69;5096712;28;20391;-75
2023/07/21 05:14:27;;;;;;;7.70;4.00;;;;;;;17.73;71.17;95722.72;5109227;27;20097;-76
2023/07/21 05:16:54;;;;;;;7.60;4.45;;;;;;;17.84;71.12;95720.06;5110614;27;20100;-75
2023/07/21 05:19:20;;;;;;;7.45;4.55;;;;;;;17.69;71.47;95722.63;5109810;27;20044;-76
2023/07/21 05:21:47;;;;;;;5.82;3.85;;;;;;;17.84;71.80;95731.06;5110659;27;20506;-75
2023/07/21 05:24:13;;;;;;;5.90;3.70;;;;;;;17.94;71.83;95733.91;5108636;27;20047;-76
2023/07/21 05:26:41;;;;;;;7.10;4.18;;;;;;;18.00;71.97;95724.13;5090451;28;20036;-76
2023/07/21 05:29:08;;;;;;;8.05;4.10;;;;;;;17.77;71.14;95733.78;5090372;28;20046;-75
2023/07/21 05:31:35;;;;;;;6.45;4.60;;;;;;;17.82;71.97;95727.91;5093990;28;20043;-76
2023/07/21 05:34:01;;;;;;;10.30;4.82;;;;;;;17.72;72.14;95732.94;5110994;27;20133;-77
2023/07/21 05:36:28;;;;;;;9.18;4.50;;;;;;;17.53;71.99;95737.81;5112208;27;20093;-75
2023/07/21 05:38:54;;;;;;;9.00;4.30;;;;;;;17.63;72.27;95731.63;5100857;27;20051;-75
2023/07/21 05:41:22;;;;;;;10.70;4.60;;;;;;;17.75;72.43;95734.16;5101830;27;20581;-76
2023/07/21 05:43:50;;;;;;;8.23;4.38;;;;;;;17.90;72.00;95730.34;5106976;28;20044;-75
2023/07/21 05:46:16;;;;;;;7.15;4.43;;;;;;;17.64;72.55;95730.47;5106047;28;20043;-76
2023/07/21 05:48:43;;;;;;;8.85;4.70;;;;;;;17.68;73.54;95729.31;5106737;27;20046;-75
2023/07/21 05:51:12;;;;;;;11.45;5.35;;;;;;;17.69;73.61;95724.59;5110203;27;20040;-76
2023/07/21 05:53:39;;;;;;;6.60;3.85;;;;;;;17.89;73.19;95726.00;5112357;27;20046;-76
2023/07/21 05:56:06;;;;;;;10.35;5.30;;;;;;;17.92;73.10;95727.22;5098330;28;20046;-76
2023/07/21 05:58:34;;;;;;;14.27;7.70;;;;;;;17.92;72.63;95722.50;5111437;27;20577;-75
2023/07/21 06:01:02;;;;;;;12.65;8.80;;;;;;;17.57;73.81;95722.13;5102801;28;20039;-75
2023/07/21 06:03:30;;;;;;;9.65;6.63;;;;;;;17.90;73.43;95716.56;5093964;28;20048;-76
2023/07/21 06:05:57;;;;;;;8.23;4.82;;;;;;;17.91;74.22;95722.88;5109185;27;20490;-75
2023/07/21 06:08:24;;;;;;;10.90;5.07;;;;;;;17.93;74.04;95715.81;5109213;27;20044;-75
2023/07/21 06:10:51;;;;;;;8.68;4.78;;;;;;;17.76;75.22;95713.69;5111429;27;20055;-75
2023/07/21 06:13:17;;;;;;;7.40;4.95;;;;;;;17.77;75.45;95707.03;5098067;28;20106;-75
2023/07/21 06:15:44;;;;;;;7.97;4.45;;;;;;;17.93;75.89;95701.25;5111262;27;20040;-75
2023/07/21 06:18:12;;;;;;;6.70;4.15;;;;;;;18.06;75.47;95693.47;5100155;28;20040;-75
2023/07/21 06:20:38;;;;;;;11.55;4.30;;;;;;;18.17;75.27;95692.41;5110150;27;20512;-75
2023/07/21 06:23:04;;;;;;;6.28;4.72;;;;;;;18.18;75.35;95687.66;5118891;27;20050;-75
2023/07/21 06:25:31;;;;;;;8.05;4.72;;;;;;;18.16;75.24;95681.72;5114249;27;20044;-75
2023/07/21 06:27:58;;;;;;;12.05;5.00;;;;;;;17.95;76.57;95680.41;5115045;27;20043;-74
2023/07/21 06:30:24;;;;;;;11.82;5.07;;;;;;;18.10;76.78;95672.25;5112991;27;20039;-75
2023/07/21 06:32:51;;;;;;;11.43;7.05;;;;;;;18.04;77.40;95665.53;5113337;27;20036;-75
2023/07/21 06:35:19;;;;;;;8.63;5.25;;;;;;;18.20;77.32;95649.50;5113150;27;20059;-75
2023/07/21 06:37:45;;;;;;;9.60;4.90;;;;;;;18.16;78.10;95659.69;5109566;27;20054;-75
2023/07/21 06:40:12;;;;;;;8.70;4.90;;;;;;;18.35;77.76;95661.41;5092153;28;20056;-75
2023/07/21 06:42:43;;;;;;;8.98;4.45;;;;;;;18.48;76.97;95663.44;5091843;28;20035;-75
2023/07/21 06:45:10;;;;;;;20.40;8.60;;;;;;;18.61;77.14;95663.09;5100446;28;20085;-75
2023/07/21 06:47:37;;;;;;;6.90;5.40;;;;;;;18.55;76.70;95659.16;5100726;28;20042;-75
2023/07/21 06:50:04;;;;;;;7.00;5.20;;;;;;;18.58;76.70;95672.13;5091711;28;20052;-75
2023/07/21 06:52:32;;;;;;;8.63;5.00;;;;;;;18.57;77.49;95676.09;5092882;28;20044;-74
2023/07/21 06:54:59;;;;;;;6.43;4.40;;;;;;;18.62;77.16;95657.19;5101285;27;20051;-75
2023/07/21 06:57:25;;;;;;;11.05;5.68;;;;;;;18.46;78.60;95652.00;5101628;28;20044;-75
2023/07/21 06:59:52;;;;;;;8.45;4.93;;;;;;;18.65;77.97;95647.38;5098141;28;20405;-75
2023/07/21 07:02:18;;;;;;;8.68;5.70;;;;;;;18.70;77.32;95655.31;5104066;27;20047;-75
2023/07/21 07:04:47;;;;;;;8.45;4.80;;;;;;;18.88;76.68;95658.91;5109857;27;20044;-75
2023/07/21 07:07:14;;;;;;;10.85;5.10;;;;;;;18.89;76.13;95662.47;5093030;28;20402;-75
2023/07/21 07:09:42;;;;;;;11.10;4.88;;;;;;;18.88;76.38;95656.16;5113179;27;20044;-74
2023/07/21 07:12:09;;;;;;;8.68;4.75;;;;;;;18.92;76.30;95665.25;5105204;27;20047;-75
2023/07/21 07:14:36;;;;;;;9.82;4.75;;;;;;;19.06;76.19;95667.28;5115568;27;20131;-75
2023/07/21 07:17:03;;;;;;;8.65;4.45;;;;;;;18.99;76.44;95672.75;5099692;28;20074;-75
2023/07/21 07:19:29;;;;;;;7.22;4.57;;;;;;;19.17;74.88;95673.59;5094073;28;20036;-75
2023/07/21 07:21:56;;;;;;;6.57;4.07;;;;;;;19.36;74.77;95674.41;5093982;28;20044;-75
2023/07/21 07:24:22;;;;;;;6.95;3.58;;;;;;;19.54;73.04;95670.53;5093077;28;20047;-75
2023/07/21 07:26:51;;;;;;;6.95;4.00;;;;;;;19.55;72.39;95676.84;5093172;28;20134;-75
2023/07/21 07:29:20;;;;;;;5.90;4.03;;;;;;;19.31;73.01;95678.34;5093201;28;20466;-75
2023/07/21 07:31:47;;;;;;;7.38;4.10;;;;;;;19.35;73.14;95689.41;5099685;28;20040;-75
2023/07/21 07:34:13;;;;;;;6.30;3.65;;;;;;;19.37;73.98;95687.84;5091931;28;20048;-75
2023/07/21 07:36:40;;;;;;;7.78;3.97;;;;;;;19.52;73.10;95695.00;5095039;28;20134;-75
2023/07/21 07:39:06;;;;;;;8.38;4.65;;;;;;;19.65;73.39;95684.38;5103568;27;20130;-76
2023/07/21 07:41:33;;;;;;;6.30;4.00;;;;;;;19.65;72.31;95692.66;5091048;28;20709;-75
2023/07/21 07:44:01;;;;;;;7.82;4.22;;;;;;;19.66;72.33;95693.44;5097300;28;20522;-75
2023/07/21 07:46:27;;;;;;;7.57;4.05;;;;;;;19.72;72.15;95694.63;5100647;28;20056;-75
2023/07/21 07:48:54;;;;;;;8.13;4.03;;;;;;;19.78;72.39;95690.28;5091051;28;20491;-76
2023/07/21 07:51:20;;;;;;;9.55;3.90;;;;;;;19.93;72.84;95685.56;5090177;28;20048;-75
2023/07/21 07:53:47;;;;;;;7.95;4.10;;;;;;;20.08;74.31;95687.94;5090703;28;20047;-74
2023/07/21 07:56:14;;;;;;;8.55;4.10;;;;;;;20.22;72.99;95698.19;5090509;28;20044;-75
2023/07/21 07:58:41;;;;;;;5.65;3.92;;;;;;;20.26;73.05;95698.19;5102690;27;20066;-75
2023/07/21 08:01:13;;;;;;;7.22;4.05;;;;;;;20.36;72.92;95694.63;5093426;28;20045;-75
2023/07/21 08:03:43;;;;;;;8.50;4.47;;;;;;;20.27;73.15;95697.00;5106014;27;20126;-75
2023/07/21 08:06:11;;;;;;;6.88;4.35;;;;;;;20.28;73.24;95706.88;5097880;28;20098;-75
2023/07/21 08:08:38;;;;;;;8.80;4.55;;;;;;;20.37;72.28;95710.03;5098362;28;20043;-75
2023/07/21 08:11:04;;;;;;;8.93;4.47;;;;;;;20.34;72.57;95717.13;5108274;27;20036;-75
2023/07/21 08:13:31;;;;;;;5.43;4.20;;;;;;;20.45;72.23;95717.13;5115002;27;20035;-74
2023/07/21 08:15:57;;;;;;;9.27;4.35;;;;;;;20.41;72.70;95715.53;5103960;27;20149;-76
2023/07/21 08:18:25;;;;;;;11.13;4.82;;;;;;;20.38;71.48;95721.88;5114330;27;20046;-75
2023/07/21 08:20:52;;;;;;;12.27;4.60;;;;;;;20.43;70.05;95708.44;5100567;28;20050;-75
2023/07/21 08:23:19;;;;;;;6.63;4.63;;;;;;;20.50;70.86;95730.56;5108407;28;20044;-75
2023/07/21 08:25:45;;;;;;;12.27;4.93;;;;;;;20.45;68.93;95721.88;5101184;27;20048;-75
2023/07/21 08:28:11;;;;;;;9.43;4.63;;;;;;;20.50;67.99;95725.03;5089882;28;20051;-74
2023/07/21 08:30:38;;;;;;;13.45;5.22;;;;;;;20.42;67.85;95728.22;5090403;28;20039;-74
2023/07/21 08:33:04;;;;;;;6.28;4.18;;;;;;;20.50;68.95;95730.56;5107283;27;20044;-74
2023/07/21 08:35:33;;;;;;;8.82;4.78;;;;;;;20.56;68.14;95722.66;5103515;27;20043;-74
2023/07/21 08:37:59;;;;;;;7.85;3.95;;;;;;;20.52;67.28;95717.16;5111313;28;20040;-74
2023/07/21 08:40:26;;;;;;;8.48;3.95;;;;;;;20.66;66.82;95737.66;5094212;27;20040;-73
2023/07/21 08:42:52;;;;;;;9.00;4.43;;;;;;;20.62;65.27;95742.41;5095616;28;20048;-74
2023/07/21 08:45:20;;;;;;;9.18;3.95;;;;;;;20.69;66.16;95742.41;5096369;28;20071;-74
2023/07/21 08:47:48;;;;;;;7.18;4.20;;;;;;;20.64;66.33;95748.34;5101705;28;20525;-74
2023/07/21 08:50:19;;;;;;;8.95;3.70;;;;;;;20.66;65.33;95748.72;5114531;27;20047;-74
2023/07/21 08:52:47;;;;;;;7.47;4.13;;;;;;;20.63;64.77;95746.78;5091003;28;20044;-73
2023/07/21 08:55:14;;;;;;;8.80;4.28;;;;;;;20.72;64.71;95752.66;5089653;28;20044;-74
2023/07/21 08:57:40;;;;;;;7.82;4.40;;;;;;;20.64;65.32;95751.13;5089953;28;20044;-74
2023/07/21 09:00:10;;;;;;;10.05;4.03;;;;;;;20.77;65.43;95757.78;5089422;28;20040;-74
2023/07/21 09:02:41;;;;;;;7.07;3.60;;;;;;;20.82;65.16;95762.91;5106626;27;20142;-74
2023/07/21 09:05:08;;;;;;;9.63;4.20;;;;;;;20.52;64.77;95753.09;5096852;27;20050;-74
2023/07/21 09:07:36;;;;;;;9.50;4.78;;;;;;;20.49;65.23;95762.19;5098983;28;20510;-74
2023/07/21 09:10:05;;;;;;;10.60;4.00;;;;;;;20.66;65.09;95757.03;5088932;28;20126;-74
2023/07/21 09:12:36;;;;;;;8.30;4.30;;;;;;;20.73;64.08;95749.53;5112550;27;20506;-73
2023/07/21 09:15:08;;;;;;;9.57;4.07;;;;;;;20.70;65.97;95755.06;5099150;27;20040;-73
2023/07/21 09:17:35;;;;;;;9.37;4.37;;;;;;;20.55;65.64;95757.84;5096672;28;20043;-73
2023/07/21 09:20:06;;;;;;;7.55;4.18;;;;;;;20.66;65.58;95765.31;5107299;28;20055;-75
2023/07/21 09:22:33;;;;;;;8.13;4.10;;;;;;;20.76;64.58;95768.06;5093819;28;20046;-74
2023/07/21 09:25:00;;;;;;;10.70;4.32;;;;;;;20.68;63.25;95768.50;5099326;28;20072;-74
2023/07/21 09:27:28;;;;;;;9.23;4.03;;;;;;;20.71;63.43;95774.00;5103688;28;20039;-74
2023/07/21 09:30:01;;;;;;;6.88;3.75;;;;;;;20.77;62.48;95760.56;5093240;28;20406;-74
2023/07/21 09:32:27;;;;;;;;;;;;;;;20.71;62.21;95762.16;5112198;27;20039;-74
2023/07/21 09:34:55;;;;;;;7.50;3.80;;;;;;;20.82;63.32;95763.72;5108857;27;20287;-74
2023/07/21 09:37:22;;;;;;;8.75;3.95;;;;;;;20.88;63.67;95761.34;5092611;28;20536;-74
2023/07/21 09:39:52;;;;;;;6.78;3.88;;;;;;;21.07;64.45;95755.34;5093424;28;20043;-74
2023/07/21 09:42:22;;;;;;;7.45;4.13;;;;;;;21.26;63.62;95753.31;5092857;28;20066;-74
2023/07/21 09:44:51;;;;;;;8.15;3.80;;;;;;;21.43;64.70;95741.38;5093353;28;20036;-74
2023/07/21 09:47:18;;;;;;;7.82;3.80;;;;;;;21.68;64.09;95740.47;5109585;27;20406;-74
2023/07/21 09:49:44;;;;;;;5.95;3.92;;;;;;;21.62;60.28;95731.78;5092960;28;20047;-74
2023/07/21 09:52:14;;;;;;;12.25;3.92;;;;;;;21.70;59.21;95722.22;5092788;28;20413;-75
2023/07/21 09:54:43;;;;;;;6.43;3.55;;;;;;;21.79;59.80;95727.34;5093193;28;20050;-74
2023/07/21 09:57:11;;;;;;;6.15;3.80;;;;;;;21.77;59.23;95727.75;5092560;28;20044;-74
2023/07/21 09:59:40;;;;;;;7.97;3.58;;;;;;;21.65;59.81;95736.50;5092718;28;20059;-74
2023/07/21 10:02:10;;;;;;;6.78;3.83;;;;;;;21.43;60.30;95749.69;5093021;28;20522;-75
2023/07/21 10:04:36;;;;;;;11.05;4.15;;;;;;;21.40;59.65;95752.47;5092748;28;20040;-73
2023/07/21 10:07:06;;;;;;;5.15;3.10;;;;;;;21.51;60.31;95751.25;5099100;27;20502;-74
2023/07/21 10:09:34;;;;;;;11.85;3.22;;;;;;;21.45;57.56;95752.84;5102439;28;20048;-74
2023/07/21 10:12:11;;;;;;;5.57;3.33;;;;;;;21.33;56.28;95753.31;5092698;28;20040;-74
2023/07/21 10:14:38;;;;;;;8.15;3.33;;;;;;;21.21;56.13;95753.72;5092759;28;20031;-74
2023/07/21 10:17:05;;;;;;;7.63;3.42;;;;;;;21.37;57.51;95751.31;5092388;28;20036;-73
2023/07/21 10:19:39;;;;;;;6.45;3.35;;;;;;;21.62;57.37;95754.75;5103004;27;20042;-74
2023/07/21 10:22:11;;;;;;;9.45;3.72;;;;;;;21.66;56.72;95753.91;5098450;28;20101;-74
2023/07/21 10:24:44;;;;;;;6.45;3.50;;;;;;;21.74;57.52;95755.47;5105181;28;20048;-74
2023/07/21 10:27:20;;;;;;;8.23;3.70;;;;;;;21.78;58.10;95756.25;5112369;27;20052;-74
2023/07/21 10:29:46;;;;;;;6.63;3.75;;;;;;;21.66;57.28;95751.16;5112368;27;20043;-74
2023/07/21 10:32:13;;;;;;;7.30;3.40;;;;;;;21.78;58.26;95751.47;5112326;27;20067;-74
2023/07/21 10:34:43;;;;;;;9.88;3.70;;;;;;;21.72;58.09;95752.31;5112814;27;20565;-74
2023/07/21 10:37:10;;;;;;;6.45;3.63;;;;;;;21.93;59.39;95752.19;5112091;27;20521;-74
2023/07/21 10:39:41;;;;;;;7.07;4.43;;;;;;;21.77;58.76;95760.19;5092737;27;20040;-74
2023/07/21 10:42:09;;;;;;;8.40;3.97;;;;;;;21.60;58.61;95761.88;5101188;27;20113;-73
2023/07/21 10:44:38;;;;;;;7.15;3.75;;;;;;;21.73;58.73;95751.13;5102958;28;20044;-74
2023/07/21 10:47:10;;;;;;;8.27;4.00;;;;;;;21.59;58.87;95750.00;5105383;27;20399;-74
2023/07/21 10:49:37;;;;;;;7.87;3.83;;;;;;;21.77;60.46;95749.09;5108659;28;20051;-74
2023/07/21 10:52:05;;;;;;;10.30;3.40;;;;;;;21.97;59.25;95750.16;5091815;28;20040;-75
2023/07/21 10:54:32;;;;;;;6.18;3.00;;;;;;;22.05;58.32;95748.94;5092145;28;20044;-73
2023/07/21 10:57:00;;;;;;;6.57;3.47;;;;;;;21.93;59.70;95735.56;5106249;28;20501;-74
2023/07/21 10:59:30;;;;;;;7.70;3.40;;;;;;;22.02;60.34;95729.53;5103461;28;20131;-74
2023/07/21 11:01:57;;;;;;;6.28;3.67;;;;;;;22.07;60.49;95735.44;5107134;28;20051;-76
2023/07/21 11:04:24;;;;;;;6.65;3.00;;;;;;;22.36;60.53;95718.59;5090277;28;20051;-75
2023/07/21 11:06:52;;;;;;;6.40;3.20;;;;;;;22.47;58.63;95727.59;5101402;27;20036;-76
2023/07/21 11:09:21;;;;;;;10.80;3.60;;;;;;;22.59;58.14;95721.53;5100806;27;20126;-74
2023/07/21 11:11:49;;;;;;;7.45;3.40;;;;;;;22.70;58.61;95715.09;5105986;27;20047;-74
2023/07/21 11:14:17;;;;;;;6.97;3.55;;;;;;;22.79;59.35;95713.41;5103773;27;20054;-73
2023/07/21 11:16:44;;;;;;;6.10;3.53;;;;;;;23.01;57.91;95710.41;5106246;27;20455;-74
2023/07/21 11:19:11;;;;;;;9.02;3.72;;;;;;;23.08;57.33;95702.81;5099755;27;20119;-73
2023/07/21 11:21:39;;;;;;;6.25;3.38;;;;;;;23.12;55.53;95702.75;5095990;28;20040;-74
2023/07/21 11:24:08;;;;;;;6.75;3.67;;;;;;;23.07;55.30;95701.22;5094922;28;20048;-74
2023/07/21 11:26:37;;;;;;;9.43;3.67;;;;;;;22.94;55.61;95708.53;5107916;27;20127;-74
2023/07/21 11:29:05;;;;;;;7.18;3.30;;;;;;;22.92;56.52;95710.94;5100999;28;20044;-73
2023/07/21 11:31:33;;;;;;;7.13;3.70;;;;;;;23.05;56.65;95698.06;5091412;28;20036;-74
2023/07/21 11:33:59;;;;;;;5.72;3.28;;;;;;;22.99;56.26;95690.63;5096808;28;20040;-75